sensor_id;sensor_type;location;lat;lon;timestamp;pressure;altitude;pressure_sealevel;temperature;humidity
72548;BME280;60570;50.848;6.776;2022-07-29T00:00:52;100395.47;;;23.60;42.50
72548;BME280;60570;50.848;6.776;2022-07-29T00:01:52;100396.28;;;23.60;42.29
72548;BME280;60570;50.848;6.776;2022-07-29T00:02:53;100389.41;;;23.58;42.36
72548;BME280;60570;50.848;6.776;2022-07-29T00:03:53;100386.13;;;23.59;42.73
72548;BME280;60570;50.848;6.776;2022-07-29T00:04:54;100390.22;;;23.58;42.70
72548;BME280;60570;50.848;6.776;2022-07-29T00:05:54;100391.81;;;23.59;42.54
72548;BME280;60570;50.848;6.776;2022-07-29T00:06:55;100386.56;;;23.58;42.43
72548;BME280;60570;50.848;6.776;2022-07-29T00:07:55;100388.59;;;23.57;42.75
72548;BME280;60570;50.848;6.776;2022-07-29T00:08:56;100395.91;;;23.58;42.76
72548;BME280;60570;50.848;6.776;2022-07-29T00:09:56;100390.22;;;23.58;42.64
72548;BME280;60570;50.848;6.776;2022-07-29T00:10:57;100383.75;;;23.58;42.68
72548;BME280;60570;50.848;6.776;2022-07-29T00:12:00;100390.66;;;23.57;42.51
72548;BME280;60570;50.848;6.776;2022-07-29T00:13:01;100389.84;;;23.56;42.80
72548;BME280;60570;50.848;6.776;2022-07-29T00:14:01;100389.84;;;23.56;42.62
72548;BME280;60570;50.848;6.776;2022-07-29T00:15:02;100389.41;;;23.58;42.62
72548;BME280;60570;50.848;6.776;2022-07-29T00:16:03;100391.44;;;23.57;42.69
72548;BME280;60570;50.848;6.776;2022-07-29T00:17:04;100381.34;;;23.56;42.55
72548;BME280;60570;50.848;6.776;2022-07-29T00:18:04;100389.84;;;23.56;42.74
72548;BME280;60570;50.848;6.776;2022-07-29T00:19:05;100390.28;;;23.55;42.59
72548;BME280;60570;50.848;6.776;2022-07-29T00:20:06;100392.69;;;23.56;42.64
72548;BME280;60570;50.848;6.776;2022-07-29T00:21:07;100377.69;;;23.56;42.46
72548;BME280;60570;50.848;6.776;2022-07-29T00:22:07;100382.56;;;23.55;42.48
72548;BME280;60570;50.848;6.776;2022-07-29T00:23:08;100378.13;;;23.54;42.60
72548;BME280;60570;50.848;6.776;2022-07-29T00:24:08;100382.97;;;23.54;42.78
72548;BME280;60570;50.848;6.776;2022-07-29T00:25:09;100379.34;;;23.53;42.60
72548;BME280;60570;50.848;6.776;2022-07-29T00:26:09;100381.38;;;23.53;42.80
72548;BME280;60570;50.848;6.776;2022-07-29T00:27:10;100374.91;;;23.52;42.61
72548;BME280;60570;50.848;6.776;2022-07-29T00:28:10;100371.25;;;23.52;42.71
72548;BME280;60570;50.848;6.776;2022-07-29T00:29:10;100370.44;;;23.51;42.96
72548;BME280;60570;50.848;6.776;2022-07-29T00:30:11;100368.41;;;23.52;42.72
72548;BME280;60570;50.848;6.776;2022-07-29T00:31:12;100360.34;;;23.50;42.89
72548;BME280;60570;50.848;6.776;2022-07-29T00:32:12;100357.50;;;23.50;42.73
72548;BME280;60570;50.848;6.776;2022-07-29T00:33:13;100358.31;;;23.51;42.90
72548;BME280;60570;50.848;6.776;2022-07-29T00:34:13;100353.88;;;23.50;42.85
72548;BME280;60570;50.848;6.776;2022-07-29T00:35:32;100353.47;;;23.48;42.80
72548;BME280;60570;50.848;6.776;2022-07-29T00:36:58;100352.28;;;23.49;42.91
72548;BME280;60570;50.848;6.776;2022-07-29T00:37:59;100349.44;;;23.49;42.72
72548;BME280;60570;50.848;6.776;2022-07-29T00:38:59;100351.47;;;23.48;42.47
72548;BME280;60570;50.848;6.776;2022-07-29T00:39:59;100351.91;;;23.47;42.69
72548;BME280;60570;50.848;6.776;2022-07-29T00:41:00;100354.72;;;23.47;42.89
72548;BME280;60570;50.848;6.776;2022-07-29T00:42:03;100354.72;;;23.47;42.88
72548;BME280;60570;50.848;6.776;2022-07-29T00:43:04;100351.91;;;23.47;42.61
72548;BME280;60570;50.848;6.776;2022-07-29T00:44:04;100355.94;;;23.46;42.69
72548;BME280;60570;50.848;6.776;2022-07-29T00:45:05;100350.28;;;23.46;42.82
72548;BME280;60570;50.848;6.776;2022-07-29T00:46:05;100351.91;;;23.47;42.93
72548;BME280;60570;50.848;6.776;2022-07-29T00:47:07;100346.66;;;23.45;43.01
72548;BME280;60570;50.848;6.776;2022-07-29T00:48:07;100346.66;;;23.45;42.85
72548;BME280;60570;50.848;6.776;2022-07-29T00:49:08;100342.63;;;23.43;42.86
72548;BME280;60570;50.848;6.776;2022-07-29T00:50:11;100342.63;;;23.43;42.73
72548;BME280;60570;50.848;6.776;2022-07-29T00:51:12;100343.44;;;23.43;42.43
72548;BME280;60570;50.848;6.776;2022-07-29T00:52:12;100338.97;;;23.42;42.65
72548;BME280;60570;50.848;6.776;2022-07-29T00:53:13;100338.16;;;23.42;42.80
72548;BME280;60570;50.848;6.776;2022-07-29T00:54:14;100336.16;;;23.42;42.84
72548;BME280;60570;50.848;6.776;2022-07-29T00:55:15;100335.34;;;23.42;42.76
72548;BME280;60570;50.848;6.776;2022-07-29T00:56:16;100336.59;;;23.41;42.72
72548;BME280;60570;50.848;6.776;2022-07-29T00:57:16;100330.09;;;23.40;42.78
72548;BME280;60570;50.848;6.776;2022-07-29T00:58:16;100337.78;;;23.40;42.65
72548;BME280;60570;50.848;6.776;2022-07-29T00:59:17;100333.75;;;23.41;42.63
72548;BME280;60570;50.848;6.776;2022-07-29T01:00:22;100334.56;;;23.41;42.58
72548;BME280;60570;50.848;6.776;2022-07-29T01:01:23;100330.09;;;23.40;42.67
72548;BME280;60570;50.848;6.776;2022-07-29T01:02:24;100325.66;;;23.39;42.72
72548;BME280;60570;50.848;6.776;2022-07-29T01:03:24;100326.44;;;23.40;42.58
72548;BME280;60570;50.848;6.776;2022-07-29T01:04:25;100334.19;;;23.39;42.62
72548;BME280;60570;50.848;6.776;2022-07-29T01:05:27;100322.03;;;23.39;42.71
72548;BME280;60570;50.848;6.776;2022-07-29T01:06:28;100328.50;;;23.39;42.80
72548;BME280;60570;50.848;6.776;2022-07-29T01:07:29;100327.69;;;23.39;42.72
72548;BME280;60570;50.848;6.776;2022-07-29T01:08:31;100326.88;;;23.38;42.68
72548;BME280;60570;50.848;6.776;2022-07-29T01:09:33;100317.94;;;23.40;42.86
72548;BME280;60570;50.848;6.776;2022-07-29T01:10:36;100328.91;;;23.38;42.67
72548;BME280;60570;50.848;6.776;2022-07-29T01:11:38;100327.69;;;23.39;42.54
72548;BME280;60570;50.848;6.776;2022-07-29T01:12:39;100330.97;;;23.37;42.76
72548;BME280;60570;50.848;6.776;2022-07-29T01:13:41;100327.25;;;23.40;42.81
72548;BME280;60570;50.848;6.776;2022-07-29T01:14:42;100326.88;;;23.38;42.53
72548;BME280;60570;50.848;6.776;2022-07-29T01:15:46;100330.97;;;23.37;42.76
72548;BME280;60570;50.848;6.776;2022-07-29T01:17:10;100324.91;;;23.35;42.52
72548;BME280;60570;50.848;6.776;2022-07-29T01:18:18;100322.09;;;23.35;42.83
72548;BME280;60570;50.848;6.776;2022-07-29T01:25:02;100332.22;;;23.33;42.66
72548;BME280;60570;50.848;6.776;2022-07-29T01:29:02;100328.16;;;23.34;42.82
72548;BME280;60570;50.848;6.776;2022-07-29T01:30:05;100326.94;;;23.35;42.78
72548;BME280;60570;50.848;6.776;2022-07-29T01:31:07;100319.66;;;23.34;42.71
72548;BME280;60570;50.848;6.776;2022-07-29T01:32:12;100321.69;;;23.33;42.88
72548;BME280;60570;50.848;6.776;2022-07-29T01:33:17;100313.97;;;23.34;42.89
72548;BME280;60570;50.848;6.776;2022-07-29T01:34:58;100313.59;;;23.32;42.86
72548;BME280;60570;50.848;6.776;2022-07-29T01:36:07;100320.09;;;23.32;42.70
72548;BME280;60570;50.848;6.776;2022-07-29T01:37:17;100316.84;;;23.30;42.90
72548;BME280;60570;50.848;6.776;2022-07-29T01:38:21;100313.22;;;23.30;42.79
72548;BME280;60570;50.848;6.776;2022-07-29T01:39:33;100318.09;;;23.29;42.88
72548;BME280;60570;50.848;6.776;2022-07-29T01:43:21;100316.47;;;23.28;42.72
72548;BME280;60570;50.848;6.776;2022-07-29T01:44:31;100309.19;;;23.27;42.80
72548;BME280;60570;50.848;6.776;2022-07-29T01:45:37;100305.13;;;23.28;42.87
72548;BME280;60570;50.848;6.776;2022-07-29T01:46:41;100304.34;;;23.28;42.92
72548;BME280;60570;50.848;6.776;2022-07-29T01:48:18;100308.81;;;23.25;42.75
72548;BME280;60570;50.848;6.776;2022-07-29T01:49:22;100313.63;;;23.28;43.02
72548;BME280;60570;50.848;6.776;2022-07-29T01:50:31;100312.84;;;23.28;42.94
72548;BME280;60570;50.848;6.776;2022-07-29T01:51:41;100312.88;;;23.24;43.02
72548;BME280;60570;50.848;6.776;2022-07-29T01:52:47;100314.94;;;23.24;42.72
72548;BME280;60570;50.848;6.776;2022-07-29T01:55:12;100313.69;;;23.25;43.12
72548;BME280;60570;50.848;6.776;2022-07-29T01:56:16;100308.00;;;23.25;42.85
72548;BME280;60570;50.848;6.776;2022-07-29T01:57:19;100313.69;;;23.25;42.76
72548;BME280;60570;50.848;6.776;2022-07-29T01:58:21;100302.41;;;23.21;43.08
72548;BME280;60570;50.848;6.776;2022-07-29T01:59:23;100310.47;;;23.23;42.87
72548;BME280;60570;50.848;6.776;2022-07-29T02:00:26;100310.09;;;23.21;43.17
72548;BME280;60570;50.848;6.776;2022-07-29T02:01:29;100308.06;;;23.21;43.27
72548;BME280;60570;50.848;6.776;2022-07-29T02:02:32;100313.34;;;23.19;43.21
72548;BME280;60570;50.848;6.776;2022-07-29T02:03:36;100298.75;;;23.21;43.27
72548;BME280;60570;50.848;6.776;2022-07-29T02:04:37;100306.44;;;23.20;43.00
72548;BME280;60570;50.848;6.776;2022-07-29T02:05:41;100306.03;;;23.22;42.98
72548;BME280;60570;50.848;6.776;2022-07-29T02:06:43;100305.28;;;23.17;43.09
72548;BME280;60570;50.848;6.776;2022-07-29T02:07:46;100298.38;;;23.18;43.10
72548;BME280;60570;50.848;6.776;2022-07-29T02:08:48;100315.38;;;23.18;43.00
72548;BME280;60570;50.848;6.776;2022-07-29T02:09:50;100306.88;;;23.18;43.00
72548;BME280;60570;50.848;6.776;2022-07-29T02:10:52;100314.56;;;23.18;43.31
72548;BME280;60570;50.848;6.776;2022-07-29T02:11:54;100308.13;;;23.17;43.07
72548;BME280;60570;50.848;6.776;2022-07-29T02:12:57;100309.72;;;23.18;43.25
72548;BME280;60570;50.848;6.776;2022-07-29T02:14:00;100310.16;;;23.17;43.18
72548;BME280;60570;50.848;6.776;2022-07-29T02:15:03;100314.63;;;23.14;43.22
72548;BME280;60570;50.848;6.776;2022-07-29T02:16:05;100316.69;;;23.14;43.06
72548;BME280;60570;50.848;6.776;2022-07-29T02:17:07;100313.47;;;23.12;43.33
72548;BME280;60570;50.848;6.776;2022-07-29T02:18:13;100319.91;;;23.12;43.33
72548;BME280;60570;50.848;6.776;2022-07-29T02:19:16;100315.88;;;23.13;43.42
72548;BME280;60570;50.848;6.776;2022-07-29T02:20:17;100314.63;;;23.14;43.19
72548;BME280;60570;50.848;6.776;2022-07-29T02:21:23;100311.00;;;23.14;43.37
72548;BME280;60570;50.848;6.776;2022-07-29T02:22:26;100309.81;;;23.11;43.46
72548;BME280;60570;50.848;6.776;2022-07-29T02:23:29;100311.91;;;23.07;43.36
72548;BME280;60570;50.848;6.776;2022-07-29T02:24:30;100302.53;;;23.10;43.55
72548;BME280;60570;50.848;6.776;2022-07-29T02:25:31;100310.63;;;23.12;43.35
72548;BME280;60570;50.848;6.776;2022-07-29T02:26:32;100307.78;;;23.12;43.26
72548;BME280;60570;50.848;6.776;2022-07-29T02:27:34;100304.16;;;23.11;43.41
72548;BME280;60570;50.848;6.776;2022-07-29T02:28:35;100315.09;;;23.09;43.48
72548;BME280;60570;50.848;6.776;2022-07-29T02:29:37;100317.50;;;23.11;43.38
72548;BME280;60570;50.848;6.776;2022-07-29T02:30:40;100314.63;;;23.14;43.40
72548;BME280;60570;50.848;6.776;2022-07-29T02:31:44;100313.50;;;23.08;43.38
72548;BME280;60570;50.848;6.776;2022-07-29T02:32:48;100322.81;;;23.09;43.57
72548;BME280;60570;50.848;6.776;2022-07-29T02:33:50;100317.94;;;23.09;43.25
72548;BME280;60570;50.848;6.776;2022-07-29T02:34:52;100317.19;;;23.05;43.40
72548;BME280;60570;50.848;6.776;2022-07-29T02:35:54;100321.22;;;23.04;43.70
72548;BME280;60570;50.848;6.776;2022-07-29T02:36:56;100316.38;;;23.05;43.43
72548;BME280;60570;50.848;6.776;2022-07-29T02:37:57;100321.22;;;23.04;43.54
72548;BME280;60570;50.848;6.776;2022-07-29T02:39:17;100322.47;;;23.03;43.44
72548;BME280;60570;50.848;6.776;2022-07-29T02:40:18;100320.44;;;23.04;43.68
72548;BME280;60570;50.848;6.776;2022-07-29T02:41:30;100318.03;;;23.02;43.52
72548;BME280;60570;50.848;6.776;2022-07-29T02:42:34;100318.03;;;23.02;43.61
72548;BME280;60570;50.848;6.776;2022-07-29T02:43:37;100315.16;;;23.06;43.30
72548;BME280;60570;50.848;6.776;2022-07-29T02:44:38;100314.78;;;23.04;43.61
72548;BME280;60570;50.848;6.776;2022-07-29T02:45:38;100314.41;;;23.02;43.45
72548;BME280;60570;50.848;6.776;2022-07-29T02:46:47;100316.00;;;23.03;43.56
72548;BME280;60570;50.848;6.776;2022-07-29T02:47:49;100314.78;;;23.04;43.51
72548;BME280;60570;50.848;6.776;2022-07-29T02:48:58;100314.47;;;22.98;43.67
72548;BME280;60570;50.848;6.776;2022-07-29T02:50:04;100318.44;;;23.01;43.67
72548;BME280;60570;50.848;6.776;2022-07-29T02:51:12;100319.69;;;23.00;43.67
72548;BME280;60570;50.848;6.776;2022-07-29T02:52:22;100320.13;;;22.98;43.67
72548;BME280;60570;50.848;6.776;2022-07-29T02:53:25;100325.78;;;22.98;43.52
72548;BME280;60570;50.848;6.776;2022-07-29T02:54:40;100326.16;;;23.00;43.68
72548;BME280;60570;50.848;6.776;2022-07-29T02:55:49;100329.84;;;22.97;43.73
72548;BME280;60570;50.848;6.776;2022-07-29T02:56:52;100324.97;;;22.98;43.52
72548;BME280;60570;50.848;6.776;2022-07-29T02:58:13;100328.63;;;22.98;43.85
72548;BME280;60570;50.848;6.776;2022-07-29T02:59:18;100338.75;;;22.96;43.76
72548;BME280;60570;50.848;6.776;2022-07-29T03:00:26;100331.06;;;22.96;43.63
72548;BME280;60570;50.848;6.776;2022-07-29T03:01:31;100320.91;;;22.99;43.77
72548;BME280;60570;50.848;6.776;2022-07-29T03:02:35;100329.06;;;22.93;43.81
72548;BME280;60570;50.848;6.776;2022-07-29T03:03:37;100325.84;;;22.91;43.86
72548;BME280;60570;50.848;6.776;2022-07-29T03:04:41;100319.75;;;22.93;43.70
72548;BME280;60570;50.848;6.776;2022-07-29T03:05:42;100319.38;;;22.91;43.82
72548;BME280;60570;50.848;6.776;2022-07-29T03:06:44;100318.56;;;22.94;43.85
72548;BME280;60570;50.848;6.776;2022-07-29T03:07:51;100322.97;;;22.95;43.79
72548;BME280;60570;50.848;6.776;2022-07-29T03:08:53;100318.97;;;22.92;43.90
72548;BME280;60570;50.848;6.776;2022-07-29T03:09:55;100322.19;;;22.94;43.88
72548;BME280;60570;50.848;6.776;2022-07-29T03:10:57;100325.81;;;22.95;43.80
72548;BME280;60570;50.848;6.776;2022-07-29T03:11:58;100320.63;;;22.90;43.78
72548;BME280;60570;50.848;6.776;2022-07-29T03:13:00;100325.03;;;22.91;43.88
72548;BME280;60570;50.848;6.776;2022-07-29T03:14:01;100325.84;;;22.91;43.81
72548;BME280;60570;50.848;6.776;2022-07-29T03:15:02;100324.66;;;22.92;43.69
72548;BME280;60570;50.848;6.776;2022-07-29T03:16:03;100324.66;;;22.92;43.78
72548;BME280;60570;50.848;6.776;2022-07-29T03:17:04;100316.16;;;22.89;43.89
72548;BME280;60570;50.848;6.776;2022-07-29T03:18:05;100321.06;;;22.88;43.70
72548;BME280;60570;50.848;6.776;2022-07-29T03:19:06;100316.97;;;22.89;43.88
72548;BME280;60570;50.848;6.776;2022-07-29T03:20:07;100319.00;;;22.89;43.74
72548;BME280;60570;50.848;6.776;2022-07-29T03:21:08;100317.03;;;22.86;43.99
72548;BME280;60570;50.848;6.776;2022-07-29T03:22:09;100321.09;;;22.85;43.97
72548;BME280;60570;50.848;6.776;2022-07-29T03:23:09;100318.22;;;22.88;43.83
72548;BME280;60570;50.848;6.776;2022-07-29T03:24:10;100323.50;;;22.86;43.86
72548;BME280;60570;50.848;6.776;2022-07-29T03:25:11;100320.28;;;22.84;43.75
72548;BME280;60570;50.848;6.776;2022-07-29T03:26:12;100330.81;;;22.84;43.71
72548;BME280;60570;50.848;6.776;2022-07-29T03:27:12;100332.00;;;22.86;43.73
72548;BME280;60570;50.848;6.776;2022-07-29T03:28:13;100331.63;;;22.84;43.87
72548;BME280;60570;50.848;6.776;2022-07-29T03:29:14;100330.81;;;22.84;43.96
72548;BME280;60570;50.848;6.776;2022-07-29T03:30:14;100338.94;;;22.82;43.77
72548;BME280;60570;50.848;6.776;2022-07-29T03:31:15;100332.06;;;22.83;43.83
72548;BME280;60570;50.848;6.776;2022-07-29T03:32:16;100331.66;;;22.81;44.01
72548;BME280;60570;50.848;6.776;2022-07-29T03:33:16;100325.19;;;22.80;43.86
72548;BME280;60570;50.848;6.776;2022-07-29T03:34:17;100327.22;;;22.80;43.99
72548;BME280;60570;50.848;6.776;2022-07-29T03:35:18;100324.75;;;22.82;43.83
72548;BME280;60570;50.848;6.776;2022-07-29T03:36:19;100327.22;;;22.80;44.03
72548;BME280;60570;50.848;6.776;2022-07-29T03:37:20;100332.44;;;22.81;43.93
72548;BME280;60570;50.848;6.776;2022-07-29T03:38:23;100330.06;;;22.80;44.02
72548;BME280;60570;50.848;6.776;2022-07-29T03:39:27;100323.16;;;22.81;44.04
72548;BME280;60570;50.848;6.776;2022-07-29T03:40:34;100333.31;;;22.78;43.72
72548;BME280;60570;50.848;6.776;2022-07-29T03:41:36;100335.34;;;22.78;43.89
72548;BME280;60570;50.848;6.776;2022-07-29T03:42:40;100328.84;;;22.81;43.81
72548;BME280;60570;50.848;6.776;2022-07-29T03:43:42;100323.56;;;22.79;44.00
72548;BME280;60570;50.848;6.776;2022-07-29T03:44:45;100333.69;;;22.80;43.90
72548;BME280;60570;50.848;6.776;2022-07-29T03:45:51;100324.44;;;22.76;43.89
72548;BME280;60570;50.848;6.776;2022-07-29T03:46:56;100326.44;;;22.76;43.73
72548;BME280;60570;50.848;6.776;2022-07-29T03:48:05;100322.41;;;22.77;43.70
72548;BME280;60570;50.848;6.776;2022-07-29T03:49:08;100322.03;;;22.75;43.98
72548;BME280;60570;50.848;6.776;2022-07-29T03:50:11;100322.41;;;22.77;43.80
72548;BME280;60570;50.848;6.776;2022-07-29T03:51:13;100327.25;;;22.76;43.91
72548;BME280;60570;50.848;6.776;2022-07-29T03:52:14;100323.63;;;22.76;43.67
72548;BME280;60570;50.848;6.776;2022-07-29T03:53:15;100322.47;;;22.73;43.99
72548;BME280;60570;50.848;6.776;2022-07-29T03:54:15;100324.91;;;22.71;44.03
72548;BME280;60570;50.848;6.776;2022-07-29T03:55:16;100325.31;;;22.70;43.89
72548;BME280;60570;50.848;6.776;2022-07-29T03:56:17;100317.66;;;22.67;44.05
72548;BME280;60570;50.848;6.776;2022-07-29T03:57:23;100320.88;;;22.69;43.82
72548;BME280;60570;50.848;6.776;2022-07-29T03:58:27;100328.56;;;22.68;44.04
72548;BME280;60570;50.848;6.776;2022-07-29T03:59:28;100320.44;;;22.70;44.10
72548;BME280;60570;50.848;6.776;2022-07-29T04:00:31;100323.72;;;22.69;43.65
72548;BME280;60570;50.848;6.776;2022-07-29T04:01:33;100319.25;;;22.71;43.78
72548;BME280;60570;50.848;6.776;2022-07-29T04:02:35;100324.91;;;22.71;43.84
72548;BME280;60570;50.848;6.776;2022-07-29T04:03:35;100327.75;;;22.71;43.59
72548;BME280;60570;50.848;6.776;2022-07-29T04:04:36;100323.28;;;22.70;43.75
72548;BME280;60570;50.848;6.776;2022-07-29T04:05:37;100314.84;;;22.67;43.87
72548;BME280;60570;50.848;6.776;2022-07-29T04:06:42;100323.31;;;22.67;43.67
72548;BME280;60570;50.848;6.776;2022-07-29T04:07:44;100325.78;;;22.65;43.97
72548;BME280;60570;50.848;6.776;2022-07-29T04:08:45;100320.50;;;22.67;43.75
72548;BME280;60570;50.848;6.776;2022-07-29T04:09:45;100322.13;;;22.64;43.72
72548;BME280;60570;50.848;6.776;2022-07-29T04:10:45;100317.75;;;22.60;43.67
72548;BME280;60570;50.848;6.776;2022-07-29T04:11:47;100320.94;;;22.65;43.58
72548;BME280;60570;50.848;6.776;2022-07-29T04:12:48;100322.09;;;22.68;43.65
72548;BME280;60570;50.848;6.776;2022-07-29T04:13:48;100324.53;;;22.66;43.61
72548;BME280;60570;50.848;6.776;2022-07-29T04:14:49;100331.44;;;22.65;43.75
72548;BME280;60570;50.848;6.776;2022-07-29T04:15:50;100329.81;;;22.67;43.55
72548;BME280;60570;50.848;6.776;2022-07-29T04:16:51;100334.72;;;22.63;43.63
72548;BME280;60570;50.848;6.776;2022-07-29T04:17:51;100329.44;;;22.62;43.58
72548;BME280;60570;50.848;6.776;2022-07-29T04:18:51;100324.63;;;22.59;43.59
72548;BME280;60570;50.848;6.776;2022-07-29T04:19:52;100330.72;;;22.57;43.69
72548;BME280;60570;50.848;6.776;2022-07-29T04:20:52;100327.47;;;22.55;43.69
72548;BME280;60570;50.848;6.776;2022-07-29T04:21:52;100331.91;;;22.56;43.52
72548;BME280;60570;50.848;6.776;2022-07-29T04:22:53;100331.50;;;22.54;43.95
72548;BME280;60570;50.848;6.776;2022-07-29T04:23:53;100336.41;;;22.50;43.78
72548;BME280;60570;50.848;6.776;2022-07-29T04:24:53;100333.56;;;22.54;43.70
72548;BME280;60570;50.848;6.776;2022-07-29T04:25:54;100337.56;;;22.56;43.44
72548;BME280;60570;50.848;6.776;2022-07-29T04:26:54;100329.50;;;22.55;43.38
72548;BME280;60570;50.848;6.776;2022-07-29T04:27:55;100329.09;;;22.53;43.54
72548;BME280;60570;50.848;6.776;2022-07-29T04:29:01;100329.94;;;22.53;43.52
72548;BME280;60570;50.848;6.776;2022-07-29T04:30:01;100330.75;;;22.50;43.68
72548;BME280;60570;50.848;6.776;2022-07-29T04:31:02;100334.78;;;22.53;43.38
72548;BME280;60570;50.848;6.776;2022-07-29T04:32:02;100330.75;;;22.50;43.54
72548;BME280;60570;50.848;6.776;2022-07-29T04:33:05;100346.53;;;22.51;43.64
72548;BME280;60570;50.848;6.776;2022-07-29T04:34:06;100341.69;;;22.52;43.48
72548;BME280;60570;50.848;6.776;2022-07-29T04:35:06;100342.06;;;22.50;43.60
72548;BME280;60570;50.848;6.776;2022-07-29T04:36:07;100344.91;;;22.50;43.34
72548;BME280;60570;50.848;6.776;2022-07-29T04:37:07;100345.72;;;22.51;43.50
72548;BME280;60570;50.848;6.776;2022-07-29T04:38:08;100344.91;;;22.50;43.69
72548;BME280;60570;50.848;6.776;2022-07-29T04:39:08;100349.78;;;22.50;43.44
72548;BME280;60570;50.848;6.776;2022-07-29T04:40:10;100355.03;;;22.51;43.59
72548;BME280;60570;50.848;6.776;2022-07-29T04:41:11;100343.69;;;22.51;43.54
72548;BME280;60570;50.848;6.776;2022-07-29T04:42:12;100348.56;;;22.51;43.36
72548;BME280;60570;50.848;6.776;2022-07-29T04:43:12;100340.88;;;22.51;43.50
72548;BME280;60570;50.848;6.776;2022-07-29T04:44:13;100350.56;;;22.50;43.44
72548;BME280;60570;50.848;6.776;2022-07-29T04:45:14;100353.00;;;22.48;43.46
72548;BME280;60570;50.848;6.776;2022-07-29T04:46:14;100357.91;;;22.48;43.52
72548;BME280;60570;50.848;6.776;2022-07-29T04:47:15;100359.50;;;22.49;43.53
72548;BME280;60570;50.848;6.776;2022-07-29T04:48:15;100353.81;;;22.49;43.44
72548;BME280;60570;50.848;6.776;2022-07-29T04:49:15;100362.75;;;22.47;43.49
72548;BME280;60570;50.848;6.776;2022-07-29T04:50:16;100359.91;;;22.47;43.70
72548;BME280;60570;50.848;6.776;2022-07-29T04:51:16;100352.63;;;22.46;43.47
72548;BME280;60570;50.848;6.776;2022-07-29T04:52:17;100362.31;;;22.49;43.63
72548;BME280;60570;50.848;6.776;2022-07-29T04:53:17;100357.91;;;22.48;43.42
72548;BME280;60570;50.848;6.776;2022-07-29T04:54:18;100358.69;;;22.48;43.45
72548;BME280;60570;50.848;6.776;2022-07-29T04:55:19;100357.09;;;22.47;43.52
72548;BME280;60570;50.848;6.776;2022-07-29T04:56:19;100360.34;;;22.46;43.56
72548;BME280;60570;50.848;6.776;2022-07-29T04:57:20;100366.41;;;22.48;43.67
72548;BME280;60570;50.848;6.776;2022-07-29T04:58:20;100372.44;;;22.50;43.61
72548;BME280;60570;50.848;6.776;2022-07-29T04:59:23;100380.94;;;22.46;43.61
72548;BME280;60570;50.848;6.776;2022-07-29T05:00:24;100382.16;;;22.49;43.36
72548;BME280;60570;50.848;6.776;2022-07-29T05:01:25;100375.28;;;22.46;43.55
72548;BME280;60570;50.848;6.776;2022-07-29T05:02:25;100374.50;;;22.46;43.53
72548;BME280;60570;50.848;6.776;2022-07-29T05:03:26;100378.94;;;22.47;43.75
72548;BME280;60570;50.848;6.776;2022-07-29T05:04:26;100380.59;;;22.44;43.65
72548;BME280;60570;50.848;6.776;2022-07-29T05:05:27;100381.38;;;22.45;43.60
72548;BME280;60570;50.848;6.776;2022-07-29T05:06:27;100372.88;;;22.45;43.40
72548;BME280;60570;50.848;6.776;2022-07-29T05:07:28;100372.09;;;22.44;43.68
72548;BME280;60570;50.848;6.776;2022-07-29T05:08:28;100367.63;;;22.43;43.74
72548;BME280;60570;50.848;6.776;2022-07-29T05:09:28;100372.09;;;22.44;43.70
72548;BME280;60570;50.848;6.776;2022-07-29T05:10:29;100367.63;;;22.43;43.70
72548;BME280;60570;50.848;6.776;2022-07-29T05:11:29;100369.66;;;22.43;43.56
72548;BME280;60570;50.848;6.776;2022-07-29T05:12:29;100371.28;;;22.44;43.59
72548;BME280;60570;50.848;6.776;2022-07-29T05:13:30;100372.88;;;22.45;43.47
72548;BME280;60570;50.848;6.776;2022-07-29T05:14:30;100380.97;;;22.43;43.58
72548;BME280;60570;50.848;6.776;2022-07-29T05:15:31;100378.59;;;22.41;43.46
72548;BME280;60570;50.848;6.776;2022-07-29T05:16:31;100387.88;;;22.42;43.63
72548;BME280;60570;50.848;6.776;2022-07-29T05:17:32;100388.28;;;22.44;43.72
72548;BME280;60570;50.848;6.776;2022-07-29T05:18:32;100385.88;;;22.42;43.73
72548;BME280;60570;50.848;6.776;2022-07-29T05:19:33;100389.91;;;22.41;43.34
72548;BME280;60570;50.848;6.776;2022-07-29T05:20:33;100394.38;;;22.42;43.74
72548;BME280;60570;50.848;6.776;2022-07-29T05:21:34;100397.97;;;22.43;43.63
72548;BME280;60570;50.848;6.776;2022-07-29T05:22:35;100401.63;;;22.43;43.51
72548;BME280;60570;50.848;6.776;2022-07-29T05:23:35;100406.06;;;22.44;43.64
72548;BME280;60570;50.848;6.776;2022-07-29T05:24:35;100403.63;;;22.43;43.84
72548;BME280;60570;50.848;6.776;2022-07-29T05:25:36;100408.50;;;22.42;43.81
72548;BME280;60570;50.848;6.776;2022-07-29T05:26:36;100409.28;;;22.43;43.71
72548;BME280;60570;50.848;6.776;2022-07-29T05:27:37;100415.38;;;22.41;43.87
72548;BME280;60570;50.848;6.776;2022-07-29T05:28:37;100408.91;;;22.41;43.86
72548;BME280;60570;50.848;6.776;2022-07-29T05:29:37;100415.38;;;22.41;43.66
72548;BME280;60570;50.848;6.776;2022-07-29T05:30:38;100412.97;;;22.40;43.75
72548;BME280;60570;50.848;6.776;2022-07-29T05:31:38;100418.22;;;22.41;43.72
72548;BME280;60570;50.848;6.776;2022-07-29T05:32:39;100407.31;;;22.40;43.81
72548;BME280;60570;50.848;6.776;2022-07-29T05:33:40;100417.81;;;22.39;43.91
72548;BME280;60570;50.848;6.776;2022-07-29T05:34:41;100422.28;;;22.40;43.73
72548;BME280;60570;50.848;6.776;2022-07-29T05:35:42;100426.75;;;22.38;43.95
72548;BME280;60570;50.848;6.776;2022-07-29T05:36:42;100425.50;;;22.39;43.78
72548;BME280;60570;50.848;6.776;2022-07-29T05:37:43;100436.44;;;22.40;43.73
72548;BME280;60570;50.848;6.776;2022-07-29T05:38:43;100429.59;;;22.38;43.96
72548;BME280;60570;50.848;6.776;2022-07-29T05:39:43;100435.25;;;22.38;43.99